Accueil
METAR-TAF:

METAR-TAF

Aéroports :

Aéroport de Saint-Nazaire - Montoir

Saint-Nazaire, France

latitude: 47-19N, longitude: 002-10W, altitude: 3 m

Observation

Le bulletin a été fait il y a 32 minutes, à 12:30 UTC
Vent 6 kt de nord, variant entre nord-ouest et est/nord-est
Température 30°C
Humidité 43%
Pression 1020 hPa
Visibilité 10 km ou plus

METAR: LFRZ 141230Z AUTO 35006KT 320V070 9999 ////// 30/16 Q1020

Heure: 15:02 (13:02 UTC)

Prévision

Le bulletin a été fait il y a 2 heures et 2 minutes, à 11:00 UTC
Prévision valable du 14 à 12 UTC au 15 à 12 UTC
Vent 10 kt de sud/sud-ouest
Visibilité 10 km ou plus
pas de nuages en-dessous de 1500 mètres et pas de cumulonimbus.
Evoluant progressivement
du 14 à 12 UTC au 14 à 14 UTC
Vent 12 kt de ouest/nord-ouest
Evoluant progressivement
du 14 à 19 UTC au 14 à 21 UTC
Vent 10 kt de nord/nord-est

TAF: LFRZ 141100Z 1412/1512 21010KT CAVOK BECMG 1412/1414 29012KT BECMG 1419/1421 02010KT

Observations et prévisions météorologiques de plus de 4000 aéroports (messages METAR et TAF).

Les stations disponibles sont représentées par des disques jaunes et rouges sur la carte.

Passer la souris dessus pour voir le nom de la station.

Cliquer dessus pour voir les observations et prévisions météorologiques.

Pour changer de carte: cliquez sur les boutons verts avec une croix noire pour zoomer, sur le bouton vert avec un tiret pour effectuer un zoom arrière, ou sur les flèches vertes pour les cartes adjacentes.


METAR-TAF: